This is the latest recevied weather packets stored in our database for station/object N8XHB. If no packets are shown the sender has not sent any weather packets the latest 10 day(s).
| Time | Temp. | Humidity | Pressure | Rain* | Wind** | Luminosity | Snow |
|---|---|---|---|---|---|---|---|
| 1777398186 | 12.22° C | 72% | 1012.6 hPa | 0 mm | - | 182 W/m² | - |
| 1777397883 | 12.22° C | 72% | 1012.6 hPa | 0 mm | - | 166 W/m² | - |
| 1777397578 | 12.78° C | 72% | 1012.5 hPa | 0 mm | - | 258 W/m² | - |
| 1777397274 | 12.78° C | 73% | 1012.5 hPa | 0 mm | - | 300 W/m² | - |
| 1777396972 | 12.22° C | 74% | 1012.1 hPa | 0 mm | - | 902 W/m² | - |
| 1777396669 | 11.67° C | 74% | 1012.3 hPa | 0 mm | - | 333 W/m² | - |
| 1777396365 | 11.67° C | 75% | 1012.4 hPa | 0 mm | - | 233 W/m² | - |
| 1777396062 | 11.67° C | 77% | 1012.5 hPa | 0 mm | - | 236 W/m² | - |
| 1777395757 | 11.67° C | 77% | 1012.3 hPa | 0 mm | - | 226 W/m² | - |
| 1777395452 | 11.67° C | 78% | 1012.2 hPa | 0 mm | - | 226 W/m² | - |
| 1777395150 | 11.67° C | 78% | 1012.2 hPa | 0 mm | - | 184 W/m² | - |
| 1777394847 | 11.11° C | 79% | 1012.3 hPa | 0 mm | - | 157 W/m² | - |
| 1777394543 | 11.67° C | 79% | 1012.2 hPa | 0 mm | - | 181 W/m² | - |
| 1777394240 | 11.67° C | 80% | 1012.1 hPa | 0 mm | - | 185 W/m² | - |
| 1777393936 | 11.11° C | 81% | 1012 hPa | 0 mm | - | 158 W/m² | - |
| 1777393635 | 11.67° C | 80% | 1011.9 hPa | 0 mm | - | 190 W/m² | - |
| 1777393331 | 11.67° C | 82% | 1012 hPa | 0 mm | - | 165 W/m² | - |
| 1777393028 | 11.11° C | 84% | 1012.1 hPa | 0 mm | - | 238 W/m² | - |
| 1777392723 | 11.11° C | 85% | 1012.1 hPa | 0 mm | - | 171 W/m² | - |
| 1777392420 | 11.11° C | 89% | 1011.9 hPa | 0 mm | - | 246 W/m² | - |
| 1777392115 | 10.56° C | 90% | 1012 hPa | 0 mm | - | 282 W/m² | - |
| 1777391810 | 10.56° C | 90% | 1011.9 hPa | 0 mm | - | 230 W/m² | - |
| 1777391506 | 10.56° C | 90% | 1011.8 hPa | 0 mm | - | 233 W/m² | - |
| 1777391202 | 10.56° C | 89% | 1011.7 hPa | 0 mm | - | 189 W/m² | - |
| 1777390899 | 10.56° C | 88% | 1011.6 hPa | 0 mm | - | 189 W/m² | - |
* Rain latest hour (hover to see other rain measurements)
** Current wind speed in m/s (hover to see current wind gust speed)